sensor_id;sensor_type;location;lat;lon;timestamp;temperature;humidity
1091;DHT22;534;48.704;9.122;2022-12-07T04:01:22;5.70;82.70
1091;DHT22;534;48.704;9.122;2022-12-07T04:03:49;5.70;82.60
1091;DHT22;534;48.704;9.122;2022-12-07T04:06:16;5.60;82.60
1091;DHT22;534;48.704;9.122;2022-12-07T04:08:43;5.60;82.80
1091;DHT22;534;48.704;9.122;2022-12-07T04:11:10;5.70;82.90
1091;DHT22;534;48.704;9.122;2022-12-07T04:13:36;5.60;82.60
1091;DHT22;534;48.704;9.122;2022-12-07T04:16:17;5.70;82.90
1091;DHT22;534;48.704;9.122;2022-12-07T04:18:45;5.70;82.90
1091;DHT22;534;48.704;9.122;2022-12-07T04:21:12;5.70;82.80
1091;DHT22;534;48.704;9.122;2022-12-07T04:23:39;5.70;82.70
1091;DHT22;534;48.704;9.122;2022-12-07T04:26:05;5.70;82.70
1091;DHT22;534;48.704;9.122;2022-12-07T04:28:32;5.70;82.60
1091;DHT22;534;48.704;9.122;2022-12-07T04:30:59;5.70;82.40
1091;DHT22;534;48.704;9.122;2022-12-07T04:33:25;5.60;82.40
1091;DHT22;534;48.704;9.122;2022-12-07T04:35:54;5.70;82.40
1091;DHT22;534;48.704;9.122;2022-12-07T04:38:20;5.70;82.40
1091;DHT22;534;48.704;9.122;2022-12-07T04:40:47;5.70;82.20
1091;DHT22;534;48.704;9.122;2022-12-07T04:43:14;5.70;81.70
1091;DHT22;534;48.704;9.122;2022-12-07T04:45:45;5.70;81.10
1091;DHT22;534;48.704;9.122;2022-12-07T04:48:12;5.70;80.80
1091;DHT22;534;48.704;9.122;2022-12-07T04:50:39;5.70;80.50
1091;DHT22;534;48.704;9.122;2022-12-07T04:53:07;5.70;80.40
1091;DHT22;534;48.704;9.122;2022-12-07T04:55:33;5.70;80.20
1091;DHT22;534;48.704;9.122;2022-12-07T04:58:00;5.70;80.40
1091;DHT22;534;48.704;9.122;2022-12-07T05:00:27;5.70;80.10
1091;DHT22;534;48.704;9.122;2022-12-07T05:02:53;5.70;79.70
1091;DHT22;534;48.704;9.122;2022-12-07T05:05:20;5.60;79.20
1091;DHT22;534;48.704;9.122;2022-12-07T05:07:47;5.40;79.10
1091;DHT22;534;48.704;9.122;2022-12-07T05:10:15;5.30;79.60
1091;DHT22;534;48.704;9.122;2022-12-07T05:12:42;5.40;79.60
1091;DHT22;534;48.704;9.122;2022-12-07T05:15:09;5.10;78.70
1091;DHT22;534;48.704;9.122;2022-12-07T05:17:36;5.00;79.00
1091;DHT22;534;48.704;9.122;2022-12-07T05:20:04;4.80;79.90
1091;DHT22;534;48.704;9.122;2022-12-07T05:22:31;4.70;80.60
1091;DHT22;534;48.704;9.122;2022-12-07T05:24:57;4.70;81.00
1091;DHT22;534;48.704;9.122;2022-12-07T05:27:25;4.60;81.10
1091;DHT22;534;48.704;9.122;2022-12-07T05:29:52;4.50;81.80
1091;DHT22;534;48.704;9.122;2022-12-07T05:32:19;4.30;82.80
1091;DHT22;534;48.704;9.122;2022-12-07T05:34:46;4.10;83.90
1091;DHT22;534;48.704;9.122;2022-12-07T05:37:12;4.00;84.60
1091;DHT22;534;48.704;9.122;2022-12-07T05:39:39;4.00;84.90
1091;DHT22;534;48.704;9.122;2022-12-07T05:42:09;4.00;84.80
1091;DHT22;534;48.704;9.122;2022-12-07T05:44:41;4.00;84.90
1091;DHT22;534;48.704;9.122;2022-12-07T05:47:08;4.10;85.10
1091;DHT22;534;48.704;9.122;2022-12-07T05:49:35;4.20;84.50
1091;DHT22;534;48.704;9.122;2022-12-07T05:52:02;4.30;84.20
1091;DHT22;534;48.704;9.122;2022-12-07T05:54:29;4.40;83.40
1091;DHT22;534;48.704;9.122;2022-12-07T05:56:56;4.50;82.90
1091;DHT22;534;48.704;9.122;2022-12-07T05:59:23;4.60;82.60
1091;DHT22;534;48.704;9.122;2022-12-07T06:01:51;4.60;82.20
1091;DHT22;534;48.704;9.122;2022-12-07T06:04:18;4.70;81.70
1091;DHT22;534;48.704;9.122;2022-12-07T06:06:45;4.70;81.40
1091;DHT22;534;48.704;9.122;2022-12-07T06:09:13;4.80;80.90
1091;DHT22;534;48.704;9.122;2022-12-07T06:11:40;4.90;80.70
1091;DHT22;534;48.704;9.122;2022-12-07T06:14:25;5.00;80.20
1091;DHT22;534;48.704;9.122;2022-12-07T06:16:53;5.00;79.60
1091;DHT22;534;48.704;9.122;2022-12-07T06:19:20;5.00;79.00
1091;DHT22;534;48.704;9.122;2022-12-07T06:21:47;5.00;78.90
1091;DHT22;534;48.704;9.122;2022-12-07T06:24:15;5.10;78.90
1091;DHT22;534;48.704;9.122;2022-12-07T06:26:42;5.00;78.70
1091;DHT22;534;48.704;9.122;2022-12-07T06:29:09;5.10;78.90
1091;DHT22;534;48.704;9.122;2022-12-07T06:31:36;5.10;79.00
1091;DHT22;534;48.704;9.122;2022-12-07T06:34:06;5.10;78.90
1091;DHT22;534;48.704;9.122;2022-12-07T06:36:33;5.10;79.00
1091;DHT22;534;48.704;9.122;2022-12-07T06:39:00;5.00;79.00
1091;DHT22;534;48.704;9.122;2022-12-07T06:41:27;5.00;79.60
1091;DHT22;534;48.704;9.122;2022-12-07T06:43:53;5.00;79.80
1091;DHT22;534;48.704;9.122;2022-12-07T06:46:20;5.10;79.90
1091;DHT22;534;48.704;9.122;2022-12-07T06:48:47;5.10;80.00
1091;DHT22;534;48.704;9.122;2022-12-07T06:51:15;5.20;79.90
1091;DHT22;534;48.704;9.122;2022-12-07T06:53:42;5.30;79.70
1091;DHT22;534;48.704;9.122;2022-12-07T06:56:08;5.30;79.10
1091;DHT22;534;48.704;9.122;2022-12-07T06:58:35;5.30;79.40
1091;DHT22;534;48.704;9.122;2022-12-07T07:01:02;5.20;78.60
1091;DHT22;534;48.704;9.122;2022-12-07T07:03:29;5.10;79.40
1091;DHT22;534;48.704;9.122;2022-12-07T07:05:56;5.10;79.40
1091;DHT22;534;48.704;9.122;2022-12-07T07:08:24;5.00;79.50
1091;DHT22;534;48.704;9.122;2022-12-07T07:10:50;4.90;79.90
1091;DHT22;534;48.704;9.122;2022-12-07T07:13:17;4.60;80.50
1091;DHT22;534;48.704;9.122;2022-12-07T07:15:44;4.30;81.70
1091;DHT22;534;48.704;9.122;2022-12-07T07:18:11;4.30;82.80
1091;DHT22;534;48.704;9.122;2022-12-07T07:20:37;4.20;83.40
1091;DHT22;534;48.704;9.122;2022-12-07T07:23:04;4.30;83.90
1091;DHT22;534;48.704;9.122;2022-12-07T07:25:33;4.40;83.30
1091;DHT22;534;48.704;9.122;2022-12-07T07:28:00;4.50;83.20
1091;DHT22;534;48.704;9.122;2022-12-07T07:30:27;4.60;83.10
1091;DHT22;534;48.704;9.122;2022-12-07T07:32:56;4.70;82.50
1091;DHT22;534;48.704;9.122;2022-12-07T07:35:23;4.90;82.10
1091;DHT22;534;48.704;9.122;2022-12-07T07:37:50;4.80;81.60
1091;DHT22;534;48.704;9.122;2022-12-07T07:40:17;4.80;82.20
1091;DHT22;534;48.704;9.122;2022-12-07T07:42:47;4.80;81.80
1091;DHT22;534;48.704;9.122;2022-12-07T07:45:14;4.70;82.20
1091;DHT22;534;48.704;9.122;2022-12-07T07:47:40;4.70;82.70
1091;DHT22;534;48.704;9.122;2022-12-07T07:50:08;4.60;82.50
1091;DHT22;534;48.704;9.122;2022-12-07T07:52:35;4.60;82.70
1091;DHT22;534;48.704;9.122;2022-12-07T07:55:01;4.60;82.90
1091;DHT22;534;48.704;9.122;2022-12-07T07:57:28;4.70;83.00
1091;DHT22;534;48.704;9.122;2022-12-07T07:59:56;4.90;82.70
1091;DHT22;534;48.704;9.122;2022-12-07T08:02:23;5.00;82.30
1091;DHT22;534;48.704;9.122;2022-12-07T08:04:50;5.10;82.20
1091;DHT22;534;48.704;9.122;2022-12-07T08:07:16;5.30;81.80
1091;DHT22;534;48.704;9.122;2022-12-07T08:09:43;5.30;81.60
1091;DHT22;534;48.704;9.122;2022-12-07T08:12:10;5.40;81.30
1091;DHT22;534;48.704;9.122;2022-12-07T08:14:36;5.50;81.00
1091;DHT22;534;48.704;9.122;2022-12-07T08:17:04;5.40;80.30
1091;DHT22;534;48.704;9.122;2022-12-07T08:19:31;5.40;80.40
1091;DHT22;534;48.704;9.122;2022-12-07T08:21:59;5.50;80.20
1091;DHT22;534;48.704;9.122;2022-12-07T08:24:25;5.30;80.10
1091;DHT22;534;48.704;9.122;2022-12-07T08:26:52;5.30;80.10
1091;DHT22;534;48.704;9.122;2022-12-07T08:29:19;5.00;80.40
1091;DHT22;534;48.704;9.122;2022-12-07T08:31:46;5.10;80.70
1091;DHT22;534;48.704;9.122;2022-12-07T08:34:14;5.20;81.00
1091;DHT22;534;48.704;9.122;2022-12-07T08:36:41;5.30;80.70
1091;DHT22;534;48.704;9.122;2022-12-07T08:39:08;5.10;80.10
1091;DHT22;534;48.704;9.122;2022-12-07T08:41:34;5.10;80.60
1091;DHT22;534;48.704;9.122;2022-12-07T08:44:02;5.10;80.90
1091;DHT22;534;48.704;9.122;2022-12-07T08:46:32;5.20;80.90
1091;DHT22;534;48.704;9.122;2022-12-07T08:49:04;5.40;80.90
1091;DHT22;534;48.704;9.122;2022-12-07T08:51:33;5.40;79.90
1091;DHT22;534;48.704;9.122;2022-12-07T08:54:02;5.40;79.20
1091;DHT22;534;48.704;9.122;2022-12-07T08:56:30;5.30;79.20
1091;DHT22;534;48.704;9.122;2022-12-07T08:58:57;5.30;79.00
1091;DHT22;534;48.704;9.122;2022-12-07T09:01:24;5.30;79.20
1091;DHT22;534;48.704;9.122;2022-12-07T09:03:51;5.20;79.30
1091;DHT22;534;48.704;9.122;2022-12-07T09:06:18;5.30;79.80
1091;DHT22;534;48.704;9.122;2022-12-07T09:08:49;5.40;79.60
1091;DHT22;534;48.704;9.122;2022-12-07T09:11:17;5.50;78.60
1091;DHT22;534;48.704;9.122;2022-12-07T09:13:44;5.60;78.90
1091;DHT22;534;48.704;9.122;2022-12-07T09:16:11;5.60;78.20
1091;DHT22;534;48.704;9.122;2022-12-07T09:18:38;5.70;78.60
1091;DHT22;534;48.704;9.122;2022-12-07T09:21:05;5.70;78.30
1091;DHT22;534;48.704;9.122;2022-12-07T09:23:31;5.80;78.20
1091;DHT22;534;48.704;9.122;2022-12-07T09:26:00;5.90;77.40
1091;DHT22;534;48.704;9.122;2022-12-07T09:28:28;5.80;77.00
1091;DHT22;534;48.704;9.122;2022-12-07T09:30:54;5.80;76.90
1091;DHT22;534;48.704;9.122;2022-12-07T09:33:21;5.60;75.80
1091;DHT22;534;48.704;9.122;2022-12-07T09:35:49;5.70;76.80
1091;DHT22;534;48.704;9.122;2022-12-07T09:38:17;5.70;76.10
1091;DHT22;534;48.704;9.122;2022-12-07T09:40:44;5.70;76.60
1091;DHT22;534;48.704;9.122;2022-12-07T09:43:15;5.90;76.70
1091;DHT22;534;48.704;9.122;2022-12-07T09:45:44;5.80;75.50
1091;DHT22;534;48.704;9.122;2022-12-07T09:48:17;5.80;76.10
1091;DHT22;534;48.704;9.122;2022-12-07T09:50:45;6.00;76.30
1091;DHT22;534;48.704;9.122;2022-12-07T09:53:24;6.10;76.40
1091;DHT22;534;48.704;9.122;2022-12-07T09:55:52;6.30;75.90
1091;DHT22;534;48.704;9.122;2022-12-07T09:58:23;6.20;74.90
1091;DHT22;534;48.704;9.122;2022-12-07T10:00:53;6.20;75.10
1091;DHT22;534;48.704;9.122;2022-12-07T10:03:21;6.20;75.30
1091;DHT22;534;48.704;9.122;2022-12-07T10:05:51;6.30;75.20
1091;DHT22;534;48.704;9.122;2022-12-07T10:08:18;6.30;75.10
1091;DHT22;534;48.704;9.122;2022-12-07T10:10:49;6.30;74.10
1091;DHT22;534;48.704;9.122;2022-12-07T10:13:21;6.20;73.80
1091;DHT22;534;48.704;9.122;2022-12-07T10:15:51;6.20;74.50
1091;DHT22;534;48.704;9.122;2022-12-07T10:18:27;6.10;74.10
1091;DHT22;534;48.704;9.122;2022-12-07T10:21:04;6.20;73.50
1091;DHT22;534;48.704;9.122;2022-12-07T10:23:33;6.10;73.60
1091;DHT22;534;48.704;9.122;2022-12-07T10:26:19;6.10;74.40
1091;DHT22;534;48.704;9.122;2022-12-07T10:28:48;6.20;75.10
1091;DHT22;534;48.704;9.122;2022-12-07T10:31:17;6.40;75.20
1091;DHT22;534;48.704;9.122;2022-12-07T10:33:50;6.50;74.40
1091;DHT22;534;48.704;9.122;2022-12-07T10:36:20;6.80;74.40
1091;DHT22;534;48.704;9.122;2022-12-07T10:38:49;6.80;72.30
1091;DHT22;534;48.704;9.122;2022-12-07T10:41:16;6.70;73.10
1091;DHT22;534;48.704;9.122;2022-12-07T10:43:51;6.80;73.80
1091;DHT22;534;48.704;9.122;2022-12-07T10:52:49;7.00;73.70
1091;DHT22;534;48.704;9.122;2022-12-07T10:55:26;6.90;73.20
1091;DHT22;534;48.704;9.122;2022-12-07T10:58:12;6.80;72.50
1091;DHT22;534;48.704;9.122;2022-12-07T11:00:51;6.70;73.10
1091;DHT22;534;48.704;9.122;2022-12-07T11:06:20;6.60;72.70
1091;DHT22;534;48.704;9.122;2022-12-07T11:09:00;6.60;73.30
1091;DHT22;534;48.704;9.122;2022-12-07T11:11:33;6.70;73.30
1091;DHT22;534;48.704;9.122;2022-12-07T11:14:08;7.00;73.30
1091;DHT22;534;48.704;9.122;2022-12-07T11:16:51;7.00;73.20
1091;DHT22;534;48.704;9.122;2022-12-07T11:19:32;7.00;71.60
1091;DHT22;534;48.704;9.122;2022-12-07T11:22:03;6.60;72.80
1091;DHT22;534;48.704;9.122;2022-12-07T11:24:38;6.70;73.80
1091;DHT22;534;48.704;9.122;2022-12-07T11:27:16;6.80;73.10
1091;DHT22;534;48.704;9.122;2022-12-07T11:30:08;6.80;72.40
1091;DHT22;534;48.704;9.122;2022-12-07T11:32:50;6.60;72.50
1091;DHT22;534;48.704;9.122;2022-12-07T11:35:24;6.70;73.40
1091;DHT22;534;48.704;9.122;2022-12-07T11:37:57;6.80;73.40
1091;DHT22;534;48.704;9.122;2022-12-07T11:40:28;7.00;73.10
1091;DHT22;534;48.704;9.122;2022-12-07T11:43:02;7.00;72.90
1091;DHT22;534;48.704;9.122;2022-12-07T11:45:32;7.10;72.50
1091;DHT22;534;48.704;9.122;2022-12-07T11:48:02;7.00;73.00
1091;DHT22;534;48.704;9.122;2022-12-07T11:50:34;7.20;72.80
1091;DHT22;534;48.704;9.122;2022-12-07T11:53:09;7.10;71.70
1091;DHT22;534;48.704;9.122;2022-12-07T11:55:42;6.90;72.30
1091;DHT22;534;48.704;9.122;2022-12-07T12:01:11;6.80;73.40
1091;DHT22;534;48.704;9.122;2022-12-07T12:03:44;6.80;73.20
1091;DHT22;534;48.704;9.122;2022-12-07T12:06:11;6.70;73.70
1091;DHT22;534;48.704;9.122;2022-12-07T12:08:42;6.80;74.10
1091;DHT22;534;48.704;9.122;2022-12-07T12:11:21;6.80;73.20
1091;DHT22;534;48.704;9.122;2022-12-07T12:14:12;6.80;74.00
1091;DHT22;534;48.704;9.122;2022-12-07T12:17:00;6.90;74.00
1091;DHT22;534;48.704;9.122;2022-12-07T12:19:35;7.00;74.30
1091;DHT22;534;48.704;9.122;2022-12-07T12:22:12;7.10;74.20
1091;DHT22;534;48.704;9.122;2022-12-07T12:24:41;7.20;73.20
1091;DHT22;534;48.704;9.122;2022-12-07T12:27:17;7.20;73.00
1091;DHT22;534;48.704;9.122;2022-12-07T12:29:53;7.20;73.00
1091;DHT22;534;48.704;9.122;2022-12-07T12:32:21;7.20;73.30
1091;DHT22;534;48.704;9.122;2022-12-07T12:35:20;7.20;73.40
1091;DHT22;534;48.704;9.122;2022-12-07T12:37:50;7.30;73.40
1091;DHT22;534;48.704;9.122;2022-12-07T12:40:41;7.20;73.50
1091;DHT22;534;48.704;9.122;2022-12-07T12:43:40;7.20;73.30
1091;DHT22;534;48.704;9.122;2022-12-07T12:49:36;7.20;74.20
1091;DHT22;534;48.704;9.122;2022-12-07T12:55:19;7.30;74.60
1091;DHT22;534;48.704;9.122;2022-12-07T12:58:22;7.20;75.00
1091;DHT22;534;48.704;9.122;2022-12-07T13:03:56;7.20;75.40
1091;DHT22;534;48.704;9.122;2022-12-07T13:06:34;7.20;75.40
1091;DHT22;534;48.704;9.122;2022-12-07T13:09:01;7.20;75.60
1091;DHT22;534;48.704;9.122;2022-12-07T13:11:32;7.30;75.70
1091;DHT22;534;48.704;9.122;2022-12-07T13:17:08;7.30;75.90
1091;DHT22;534;48.704;9.122;2022-12-07T13:19:59;7.20;75.90
1091;DHT22;534;48.704;9.122;2022-12-07T13:22:43;7.20;76.00
1091;DHT22;534;48.704;9.122;2022-12-07T13:25:12;7.20;76.10
1091;DHT22;534;48.704;9.122;2022-12-07T13:27:42;7.20;76.00
1091;DHT22;534;48.704;9.122;2022-12-07T13:30:14;7.30;76.10
1091;DHT22;534;48.704;9.122;2022-12-07T13:32:42;7.30;76.00
1091;DHT22;534;48.704;9.122;2022-12-07T13:35:29;7.30;75.60
1091;DHT22;534;48.704;9.122;2022-12-07T13:37:56;7.20;75.80
1091;DHT22;534;48.704;9.122;2022-12-07T13:40:24;7.20;76.00
1091;DHT22;534;48.704;9.122;2022-12-07T13:42:59;7.30;75.90
1091;DHT22;534;48.704;9.122;2022-12-07T13:45:28;7.30;75.20
1091;DHT22;534;48.704;9.122;2022-12-07T13:48:13;7.30;74.90
1091;DHT22;534;48.704;9.122;2022-12-07T13:50:41;7.30;74.90
1091;DHT22;534;48.704;9.122;2022-12-07T13:53:12;7.30;74.70
1091;DHT22;534;48.704;9.122;2022-12-07T13:55:45;7.40;75.00
1091;DHT22;534;48.704;9.122;2022-12-07T13:58:14;7.50;74.40
1091;DHT22;534;48.704;9.122;2022-12-07T14:00:41;7.50;74.00
1091;DHT22;534;48.704;9.122;2022-12-07T14:03:27;7.50;73.80
1091;DHT22;534;48.704;9.122;2022-12-07T14:06:25;7.40;74.00
1091;DHT22;534;48.704;9.122;2022-12-07T14:09:16;7.50;73.90
1091;DHT22;534;48.704;9.122;2022-12-07T14:11:44;7.50;73.70
1091;DHT22;534;48.704;9.122;2022-12-07T14:14:16;7.50;73.70
1091;DHT22;534;48.704;9.122;2022-12-07T14:16:54;7.50;73.90
1091;DHT22;534;48.704;9.122;2022-12-07T14:19:41;7.50;73.50
1091;DHT22;534;48.704;9.122;2022-12-07T14:22:15;7.40;73.70
1091;DHT22;534;48.704;9.122;2022-12-07T14:24:44;7.40;73.60
1091;DHT22;534;48.704;9.122;2022-12-07T14:27:17;7.40;73.20
1091;DHT22;534;48.704;9.122;2022-12-07T14:29:46;7.30;72.70
1091;DHT22;534;48.704;9.122;2022-12-07T14:32:22;7.30;73.20
1091;DHT22;534;48.704;9.122;2022-12-07T14:34:55;7.30;72.70
1091;DHT22;534;48.704;9.122;2022-12-07T14:37:23;7.30;72.80
1091;DHT22;534;48.704;9.122;2022-12-07T14:39:50;7.30;72.70
1091;DHT22;534;48.704;9.122;2022-12-07T14:42:17;7.30;72.40
1091;DHT22;534;48.704;9.122;2022-12-07T14:44:43;7.30;72.30
1091;DHT22;534;48.704;9.122;2022-12-07T14:47:12;7.20;71.80
1091;DHT22;534;48.704;9.122;2022-12-07T14:49:39;7.10;72.40
1091;DHT22;534;48.704;9.122;2022-12-07T14:52:08;7.10;72.70
1091;DHT22;534;48.704;9.122;2022-12-07T14:54:37;7.10;72.50
1091;DHT22;534;48.704;9.122;2022-12-07T14:57:04;7.00;72.20
1091;DHT22;534;48.704;9.122;2022-12-07T14:59:31;7.10;72.30
1091;DHT22;534;48.704;9.122;2022-12-07T15:01:58;7.10;72.80
1091;DHT22;534;48.704;9.122;2022-12-07T15:04:26;7.00;72.80
1091;DHT22;534;48.704;9.122;2022-12-07T15:06:57;7.10;72.90
1091;DHT22;534;48.704;9.122;2022-12-07T15:09:24;7.00;72.80
1091;DHT22;534;48.704;9.122;2022-12-07T15:11:51;7.10;72.90
1091;DHT22;534;48.704;9.122;2022-12-07T15:14:17;7.10;72.40
1091;DHT22;534;48.704;9.122;2022-12-07T15:16:44;7.10;72.50
1091;DHT22;534;48.704;9.122;2022-12-07T15:19:14;7.10;72.50
1091;DHT22;534;48.704;9.122;2022-12-07T15:21:42;7.10;72.80
1091;DHT22;534;48.704;9.122;2022-12-07T15:24:10;7.20;72.90
1091;DHT22;534;48.704;9.122;2022-12-07T15:26:38;7.20;72.80
1091;DHT22;534;48.704;9.122;2022-12-07T15:29:05;7.20;72.80
1091;DHT22;534;48.704;9.122;2022-12-07T15:31:32;7.10;72.80
1091;DHT22;534;48.704;9.122;2022-12-07T15:33:59;7.10;73.00
1091;DHT22;534;48.704;9.122;2022-12-07T15:36:27;7.10;73.00
1091;DHT22;534;48.704;9.122;2022-12-07T15:38:56;7.10;73.20
1091;DHT22;534;48.704;9.122;2022-12-07T15:41:22;7.00;73.60
1091;DHT22;534;48.704;9.122;2022-12-07T15:43:49;7.00;73.70
1091;DHT22;534;48.704;9.122;2022-12-07T15:46:36;7.00;73.90
1091;DHT22;534;48.704;9.122;2022-12-07T15:49:03;7.00;74.50
1091;DHT22;534;48.704;9.122;2022-12-07T15:51:30;7.00;74.80
1091;DHT22;534;48.704;9.122;2022-12-07T15:53:58;7.00;75.40
1091;DHT22;534;48.704;9.122;2022-12-07T15:56:25;6.90;75.50
1091;DHT22;534;48.704;9.122;2022-12-07T15:58:52;6.90;75.50
1091;DHT22;534;48.704;9.122;2022-12-07T16:01:19;6.90;75.70
1091;DHT22;534;48.704;9.122;2022-12-07T16:03:46;6.70;76.00
1091;DHT22;534;48.704;9.122;2022-12-07T16:06:15;6.70;76.10
1091;DHT22;534;48.704;9.122;2022-12-07T16:08:42;6.70;76.30
1091;DHT22;534;48.704;9.122;2022-12-07T16:11:11;6.60;76.20
1091;DHT22;534;48.704;9.122;2022-12-07T16:13:38;6.60;76.30
1091;DHT22;534;48.704;9.122;2022-12-07T16:16:07;6.50;76.70
1091;DHT22;534;48.704;9.122;2022-12-07T16:18:34;6.40;77.00
1091;DHT22;534;48.704;9.122;2022-12-07T16:21:01;6.30;77.40
1091;DHT22;534;48.704;9.122;2022-12-07T16:23:29;6.30;77.80
1091;DHT22;534;48.704;9.122;2022-12-07T16:26:04;6.30;77.90
1091;DHT22;534;48.704;9.122;2022-12-07T16:28:33;6.30;77.90
1091;DHT22;534;48.704;9.122;2022-12-07T16:31:01;6.20;77.60
1091;DHT22;534;48.704;9.122;2022-12-07T16:33:28;6.00;77.70
1091;DHT22;534;48.704;9.122;2022-12-07T16:35:55;6.10;77.60
1091;DHT22;534;48.704;9.122;2022-12-07T16:38:22;6.20;77.60
1091;DHT22;534;48.704;9.122;2022-12-07T16:40:48;6.20;77.30
1091;DHT22;534;48.704;9.122;2022-12-07T16:43:15;6.20;77.30
1091;DHT22;534;48.704;9.122;2022-12-07T16:45:44;6.10;77.20
1091;DHT22;534;48.704;9.122;2022-12-07T16:48:11;6.10;77.50
1091;DHT22;534;48.704;9.122;2022-12-07T16:50:39;6.10;77.10
1091;DHT22;534;48.704;9.122;2022-12-07T16:53:06;6.10;77.30
1091;DHT22;534;48.704;9.122;2022-12-07T16:55:35;6.10;77.30
1091;DHT22;534;48.704;9.122;2022-12-07T16:58:02;6.00;77.50
1091;DHT22;534;48.704;9.122;2022-12-07T17:00:29;6.00;77.60
1091;DHT22;534;48.704;9.122;2022-12-07T17:02:57;6.00;77.70
1091;DHT22;534;48.704;9.122;2022-12-07T17:05:24;6.00;77.70
1091;DHT22;534;48.704;9.122;2022-12-07T17:07:52;6.10;77.60
1091;DHT22;534;48.704;9.122;2022-12-07T17:10:19;5.80;77.40
1091;DHT22;534;48.704;9.122;2022-12-07T17:12:45;5.50;79.00
1091;DHT22;534;48.704;9.122;2022-12-07T17:15:12;5.40;79.60
1091;DHT22;534;48.704;9.122;2022-12-07T17:17:50;5.50;79.40
1091;DHT22;534;48.704;9.122;2022-12-07T17:20:19;5.60;79.10
1091;DHT22;534;48.704;9.122;2022-12-07T17:22:46;5.50;79.30
1091;DHT22;534;48.704;9.122;2022-12-07T17:25:13;5.50;79.20
1091;DHT22;534;48.704;9.122;2022-12-07T17:27:40;5.60;79.40
1091;DHT22;534;48.704;9.122;2022-12-07T17:30:08;5.70;78.90
1091;DHT22;534;48.704;9.122;2022-12-07T17:32:35;5.70;78.80
1091;DHT22;534;48.704;9.122;2022-12-07T17:35:02;5.80;78.70
1091;DHT22;534;48.704;9.122;2022-12-07T17:37:30;5.90;78.00
1091;DHT22;534;48.704;9.122;2022-12-07T17:39:57;5.80;78.20
1091;DHT22;534;48.704;9.122;2022-12-07T17:42:24;5.80;78.00
1091;DHT22;534;48.704;9.122;2022-12-07T17:45:03;5.80;78.10
1091;DHT22;534;48.704;9.122;2022-12-07T17:47:30;5.70;78.20
1091;DHT22;534;48.704;9.122;2022-12-07T17:49:56;5.70;78.30
1091;DHT22;534;48.704;9.122;2022-12-07T17:52:23;5.80;78.30
1091;DHT22;534;48.704;9.122;2022-12-07T17:55:09;5.70;78.30
1091;DHT22;534;48.704;9.122;2022-12-07T17:57:36;5.60;78.60
1091;DHT22;534;48.704;9.122;2022-12-07T18:00:03;5.40;79.00
1091;DHT22;534;48.704;9.122;2022-12-07T18:02:30;5.30;79.90
1091;DHT22;534;48.704;9.122;2022-12-07T18:04:57;5.40;79.80
1091;DHT22;534;48.704;9.122;2022-12-07T18:07:24;5.40;79.80
1091;DHT22;534;48.704;9.122;2022-12-07T18:09:51;5.50;79.90
1091;DHT22;534;48.704;9.122;2022-12-07T18:12:19;5.40;79.20
1091;DHT22;534;48.704;9.122;2022-12-07T18:14:46;5.40;79.80
1091;DHT22;534;48.704;9.122;2022-12-07T18:17:13;5.40;79.70
1091;DHT22;534;48.704;9.122;2022-12-07T18:19:40;5.40;79.50
1091;DHT22;534;48.704;9.122;2022-12-07T18:22:07;5.40;79.10
1091;DHT22;534;48.704;9.122;2022-12-07T18:24:33;5.30;79.20
1091;DHT22;534;48.704;9.122;2022-12-07T18:27:02;5.30;79.20
1091;DHT22;534;48.704;9.122;2022-12-07T18:29:31;5.30;79.20
1091;DHT22;534;48.704;9.122;2022-12-07T18:31:58;5.40;79.20
1091;DHT22;534;48.704;9.122;2022-12-07T18:34:24;5.50;78.90
1091;DHT22;534;48.704;9.122;2022-12-07T18:36:53;5.50;78.70
1091;DHT22;534;48.704;9.122;2022-12-07T18:39:20;5.50;78.70
1091;DHT22;534;48.704;9.122;2022-12-07T18:41:47;5.50;78.40
1091;DHT22;534;48.704;9.122;2022-12-07T18:44:14;5.60;78.30
1091;DHT22;534;48.704;9.122;2022-12-07T18:46:42;5.50;78.30
1091;DHT22;534;48.704;9.122;2022-12-07T18:49:11;5.60;78.50
1091;DHT22;534;48.704;9.122;2022-12-07T18:51:38;5.60;78.20
1091;DHT22;534;48.704;9.122;2022-12-07T18:54:05;5.50;78.50
1091;DHT22;534;48.704;9.122;2022-12-07T18:56:32;5.50;78.60
1091;DHT22;534;48.704;9.122;2022-12-07T18:59:00;5.60;78.40
1091;DHT22;534;48.704;9.122;2022-12-07T19:01:49;5.60;78.60
1091;DHT22;534;48.704;9.122;2022-12-07T19:04:16;5.70;78.30
1091;DHT22;534;48.704;9.122;2022-12-07T19:06:43;5.70;78.20
1091;DHT22;534;48.704;9.122;2022-12-07T19:09:11;5.80;78.10
1091;DHT22;534;48.704;9.122;2022-12-07T19:11:38;5.80;78.00
1091;DHT22;534;48.704;9.122;2022-12-07T19:14:22;5.70;78.10
1091;DHT22;534;48.704;9.122;2022-12-07T19:16:52;5.70;78.10
1091;DHT22;534;48.704;9.122;2022-12-07T19:19:21;5.70;77.90
1091;DHT22;534;48.704;9.122;2022-12-07T19:21:49;5.70;78.20
1091;DHT22;534;48.704;9.122;2022-12-07T19:24:16;5.70;78.10
1091;DHT22;534;48.704;9.122;2022-12-07T19:26:43;5.80;78.20
1091;DHT22;534;48.704;9.122;2022-12-07T19:29:10;5.80;78.30
1091;DHT22;534;48.704;9.122;2022-12-07T19:31:36;5.90;78.60
1091;DHT22;534;48.704;9.122;2022-12-07T19:34:08;5.90;78.30
1091;DHT22;534;48.704;9.122;2022-12-07T19:36:35;6.00;77.80
1091;DHT22;534;48.704;9.122;2022-12-07T19:39:03;6.00;77.40
1091;DHT22;534;48.704;9.122;2022-12-07T19:41:30;5.90;77.70
1091;DHT22;534;48.704;9.122;2022-12-07T19:44:00;5.90;77.70
1091;DHT22;534;48.704;9.122;2022-12-07T19:46:27;6.00;77.40
1091;DHT22;534;48.704;9.122;2022-12-07T19:48:54;5.80;77.20
1091;DHT22;534;48.704;9.122;2022-12-07T19:51:23;5.60;77.60
1091;DHT22;534;48.704;9.122;2022-12-07T19:53:50;5.40;78.00
1091;DHT22;534;48.704;9.122;2022-12-07T19:56:18;5.30;78.80
1091;DHT22;534;48.704;9.122;2022-12-07T19:58:45;5.20;78.90
1091;DHT22;534;48.704;9.122;2022-12-07T20:01:12;5.20;79.60
1091;DHT22;534;48.704;9.122;2022-12-07T20:03:39;5.30;79.40
1091;DHT22;534;48.704;9.122;2022-12-07T20:06:07;5.40;79.20
1091;DHT22;534;48.704;9.122;2022-12-07T20:08:36;5.50;78.90
1091;DHT22;534;48.704;9.122;2022-12-07T20:11:02;5.50;78.30
1091;DHT22;534;48.704;9.122;2022-12-07T20:13:50;5.60;78.20
1091;DHT22;534;48.704;9.122;2022-12-07T20:16:16;5.50;78.10
1091;DHT22;534;48.704;9.122;2022-12-07T20:18:43;5.30;79.10
1091;DHT22;534;48.704;9.122;2022-12-07T20:21:10;5.50;78.50
1091;DHT22;534;48.704;9.122;2022-12-07T20:23:38;5.50;78.60
1091;DHT22;534;48.704;9.122;2022-12-07T20:26:06;5.50;78.20
1091;DHT22;534;48.704;9.122;2022-12-07T20:28:33;5.40;78.50
1091;DHT22;534;48.704;9.122;2022-12-07T20:31:00;5.30;78.30
1091;DHT22;534;48.704;9.122;2022-12-07T20:33:27;5.20;79.40
1091;DHT22;534;48.704;9.122;2022-12-07T20:35:58;5.20;79.30
1091;DHT22;534;48.704;9.122;2022-12-07T20:38:26;5.20;78.90
1091;DHT22;534;48.704;9.122;2022-12-07T20:40:59;5.20;78.90
1091;DHT22;534;48.704;9.122;2022-12-07T20:43:26;5.10;78.60
1091;DHT22;534;48.704;9.122;2022-12-07T20:45:53;5.10;79.20
1091;DHT22;534;48.704;9.122;2022-12-07T20:48:21;5.00;79.40
1091;DHT22;534;48.704;9.122;2022-12-07T20:50:48;5.00;79.60
1091;DHT22;534;48.704;9.122;2022-12-07T20:53:15;4.90;79.60
1091;DHT22;534;48.704;9.122;2022-12-07T20:55:42;4.90;79.80
1091;DHT22;534;48.704;9.122;2022-12-07T20:58:10;5.00;79.50
1091;DHT22;534;48.704;9.122;2022-12-07T21:00:37;5.00;79.40
1091;DHT22;534;48.704;9.122;2022-12-07T21:03:03;5.00;79.10
1091;DHT22;534;48.704;9.122;2022-12-07T21:05:31;5.10;79.30
1091;DHT22;534;48.704;9.122;2022-12-07T21:07:59;5.10;78.90
1091;DHT22;534;48.704;9.122;2022-12-07T21:10:26;4.90;78.90
1091;DHT22;534;48.704;9.122;2022-12-07T21:12:53;4.90;79.40
1091;DHT22;534;48.704;9.122;2022-12-07T21:15:21;4.90;79.30